createdAt,value
2023-03-12T00:01:18.940Z,92101.00
2023-03-12T00:02:19.065Z,92103.00
2023-03-12T00:03:19.172Z,92105.00
2023-03-12T00:04:19.162Z,92107.00
2023-03-12T00:05:19.326Z,92107.00
2023-03-12T00:32:21.457Z,92134.00
2023-03-12T00:33:21.492Z,92134.00
2023-03-12T00:34:21.605Z,92136.00
2023-03-12T00:35:21.641Z,92136.00
2023-03-12T00:36:21.717Z,92140.00
2023-03-12T00:37:21.813Z,92144.00
2023-03-12T00:38:21.873Z,92142.00
2023-03-12T00:39:21.960Z,92144.00
2023-03-12T00:40:22.042Z,92138.00
2023-03-12T00:41:22.129Z,92140.00
2023-03-12T00:42:22.210Z,92144.00
2023-03-12T00:43:22.259Z,92142.00
2023-03-12T00:44:22.344Z,92146.00
2023-03-12T00:45:22.420Z,92150.00
2023-03-12T00:46:22.556Z,92148.00
2023-03-12T00:47:22.566Z,92150.00
2023-03-12T00:48:22.648Z,92150.00
2023-03-12T00:49:22.729Z,92152.00
2023-03-12T00:50:22.810Z,92152.00
2023-03-12T00:51:22.899Z,92156.00
2023-03-12T00:52:22.954Z,92154.00
2023-03-12T00:53:23.103Z,92158.00
2023-03-12T00:54:23.092Z,92160.00
2023-03-12T00:55:23.168Z,92156.00
2023-03-12T00:56:23.248Z,92152.00
2023-03-12T00:57:23.354Z,92150.00
2023-03-12T00:58:23.434Z,92152.00
2023-03-12T00:59:23.510Z,92150.00
2023-03-12T01:00:23.589Z,92154.00
2023-03-12T01:01:23.686Z,92152.00
2023-03-12T01:03:23.858Z,92148.00
2023-03-12T01:04:24.009Z,92152.00
2023-03-12T01:05:23.998Z,92152.00
2023-03-12T01:06:24.106Z,92152.00
2023-03-12T01:07:24.164Z,92152.00
2023-03-12T01:08:24.258Z,92152.00
2023-03-12T01:09:24.339Z,92150.00
2023-03-12T01:10:24.416Z,92148.00
2023-03-12T01:11:24.499Z,92150.00
2023-03-12T01:12:24.580Z,92154.00
2023-03-12T01:13:24.667Z,92156.00
2023-03-12T01:14:24.744Z,92154.00
2023-03-12T01:15:24.885Z,92156.00
2023-03-12T01:16:24.907Z,92154.00
2023-03-12T01:17:24.987Z,92160.00
2023-03-12T01:18:25.106Z,92160.00
2023-03-12T01:19:25.128Z,92162.00
2023-03-12T01:20:25.217Z,92162.00
2023-03-12T01:21:25.292Z,92158.00
2023-03-12T01:22:25.379Z,92160.00
2023-03-12T01:23:25.444Z,92160.00
2023-03-12T01:24:25.533Z,92162.00
2023-03-12T01:25:25.600Z,92162.00
2023-03-12T01:26:25.677Z,92162.00
2023-03-12T01:27:25.754Z,92164.00
2023-03-12T01:28:25.840Z,92162.00
2023-03-12T01:29:26.756Z,92160.00
2023-03-12T01:30:26.000Z,92164.00
2023-03-12T01:31:26.080Z,92166.00
2023-03-12T01:32:26.181Z,92168.00
2023-03-12T01:33:26.217Z,92166.00
2023-03-12T01:34:26.344Z,92166.00
2023-03-12T01:35:26.518Z,92166.00
2023-03-12T01:36:26.553Z,92168.00
2023-03-12T01:37:26.525Z,92170.00
2023-03-12T01:38:26.615Z,92172.00
2023-03-12T01:39:26.686Z,92170.00
2023-03-12T01:40:26.774Z,92174.00
2023-03-12T01:41:26.875Z,92176.00
2023-03-12T01:42:26.934Z,92176.00
2023-03-12T01:43:27.281Z,92179.00
2023-03-12T01:44:27.082Z,92179.00
2023-03-12T01:45:27.265Z,92181.00
2023-03-12T01:46:27.254Z,92179.00
2023-03-12T01:47:27.318Z,92181.00
2023-03-12T01:48:27.415Z,92181.00
2023-03-12T01:49:27.473Z,92183.00
2023-03-12T01:50:27.553Z,92183.00
2023-03-12T01:51:27.626Z,92183.00
2023-03-12T01:52:27.751Z,92181.00
2023-03-12T01:53:27.865Z,92181.00
2023-03-12T01:54:27.858Z,92181.00
2023-03-12T01:55:27.946Z,92183.00
2023-03-12T01:56:28.054Z,92179.00
2023-03-12T01:57:28.748Z,92181.00
2023-03-12T01:58:28.180Z,92181.00
2023-03-12T01:59:28.244Z,92181.00
2023-03-12T02:00:28.332Z,92179.00
2023-03-12T02:01:28.470Z,92179.00
2023-03-12T02:02:28.796Z,92179.00
2023-03-12T02:03:28.573Z,92179.00
2023-03-12T02:04:28.640Z,92179.00
2023-03-12T02:05:28.802Z,92179.00
2023-03-12T02:06:28.801Z,92181.00
2023-03-12T02:07:28.879Z,92183.00
2023-03-12T02:08:29.025Z,92181.00
2023-03-12T02:09:29.034Z,92181.00
2023-03-12T02:10:29.117Z,92185.00
2023-03-12T02:11:29.194Z,92183.00
2023-03-12T02:12:29.264Z,92183.00
2023-03-12T02:13:29.347Z,92185.00
2023-03-12T02:14:29.431Z,92185.00
2023-03-12T02:15:29.506Z,92187.00
2023-03-12T02:16:30.256Z,92187.00
2023-03-12T02:17:29.670Z,92189.00
2023-03-12T02:18:29.753Z,92187.00
2023-03-12T02:19:29.840Z,92187.00
2023-03-12T02:20:29.923Z,92189.00
2023-03-12T02:21:29.985Z,92187.00
2023-03-12T02:22:30.069Z,92191.00
2023-03-12T02:23:30.155Z,92189.00
2023-03-12T02:24:30.240Z,92189.00
2023-03-12T02:25:30.305Z,92189.00
2023-03-12T02:26:30.382Z,92187.00
2023-03-12T02:27:30.454Z,92189.00
2023-03-12T02:28:30.527Z,92193.00
2023-03-12T02:29:30.600Z,92197.00
2023-03-12T02:30:30.683Z,92195.00
2023-03-12T02:31:30.815Z,92197.00
2023-03-12T02:32:30.870Z,92197.00
2023-03-12T02:33:30.936Z,92197.00
2023-03-12T02:34:31.057Z,92201.00
2023-03-12T02:35:31.118Z,92199.00
2023-03-12T02:36:31.273Z,92201.00
2023-03-12T02:37:31.225Z,92205.00
2023-03-12T02:38:31.301Z,92205.00
2023-03-12T02:39:31.407Z,92203.00
2023-03-12T02:40:31.472Z,92201.00
2023-03-12T02:41:31.545Z,92201.00
2023-03-12T02:42:31.618Z,92201.00
2023-03-12T02:43:31.686Z,92199.00
2023-03-12T02:44:31.773Z,92203.00
2023-03-12T02:45:31.851Z,92207.00
2023-03-12T02:46:31.931Z,92203.00
2023-03-12T02:47:32.981Z,92203.00
2023-03-12T02:48:32.114Z,92201.00
2023-03-12T02:49:32.166Z,92203.00
2023-03-12T02:50:32.245Z,92201.00
2023-03-12T02:51:32.395Z,92199.00
2023-03-12T02:52:32.413Z,92199.00
2023-03-12T02:53:32.492Z,92199.00
2023-03-12T02:54:32.576Z,92201.00
2023-03-12T02:55:32.652Z,92205.00
2023-03-12T02:56:32.775Z,92211.00
2023-03-12T02:57:32.807Z,92211.00
2023-03-12T02:58:32.895Z,92213.00
2023-03-12T02:59:32.966Z,92213.00
2023-03-12T03:00:33.083Z,92211.00
2023-03-12T03:01:33.169Z,92209.00
2023-03-12T03:02:33.205Z,92215.00
2023-03-12T03:03:33.288Z,92219.00
2023-03-12T03:04:33.451Z,92217.00
2023-03-12T03:05:33.449Z,92217.00
2023-03-12T03:06:33.524Z,92217.00
2023-03-12T03:07:33.606Z,92219.00
2023-03-12T03:08:33.687Z,92219.00
2023-03-12T03:09:33.797Z,92223.00
2023-03-12T03:10:33.849Z,92225.00
2023-03-12T03:11:33.937Z,92223.00
2023-03-12T03:12:34.012Z,92221.00
2023-03-12T03:13:34.093Z,92219.00
2023-03-12T03:14:34.280Z,92223.00
2023-03-12T03:15:34.281Z,92225.00
2023-03-12T03:16:34.323Z,92223.00
2023-03-12T03:17:34.419Z,92225.00
2023-03-12T03:18:34.498Z,92226.00
2023-03-12T03:19:34.572Z,92230.00
2023-03-12T03:20:34.664Z,92230.00
2023-03-12T03:21:34.740Z,92232.00
2023-03-12T03:22:34.828Z,92234.00
2023-03-12T03:23:34.989Z,92232.00
2023-03-12T03:24:34.987Z,92230.00
2023-03-12T03:25:35.198Z,92226.00
2023-03-12T03:26:35.147Z,92226.00
2023-03-12T03:27:35.234Z,92230.00
2023-03-12T03:28:35.308Z,92230.00
2023-03-12T03:29:35.388Z,92232.00
2023-03-12T03:30:35.477Z,92230.00
2023-03-12T03:31:35.584Z,92228.00
2023-03-12T03:32:35.650Z,92226.00
2023-03-12T03:33:35.727Z,92226.00
2023-03-12T03:34:35.809Z,92230.00
2023-03-12T03:35:35.908Z,92230.00
2023-03-12T03:36:35.967Z,92230.00
2023-03-12T03:37:36.031Z,92232.00
2023-03-12T03:38:36.115Z,92230.00
2023-03-12T03:39:36.178Z,92228.00
2023-03-12T03:40:36.330Z,92225.00
2023-03-12T03:41:36.366Z,92223.00
2023-03-12T03:42:36.404Z,92223.00
2023-03-12T03:43:36.488Z,92226.00
2023-03-12T03:44:36.563Z,92225.00
2023-03-12T03:45:36.640Z,92228.00
2023-03-12T03:46:36.755Z,92225.00
2023-03-12T03:47:36.851Z,92226.00
2023-03-12T03:48:36.840Z,92226.00
2023-03-12T03:49:36.914Z,92232.00
2023-03-12T03:50:36.992Z,92230.00
2023-03-12T03:51:37.077Z,92232.00
2023-03-12T03:52:37.137Z,92230.00
2023-03-12T03:53:37.198Z,92232.00
2023-03-12T03:54:37.253Z,92234.00
2023-03-12T03:55:37.334Z,92234.00
2023-03-12T03:56:37.387Z,92232.00
2023-03-12T03:57:38.290Z,92232.00
2023-03-12T03:58:37.504Z,92232.00
2023-03-12T03:59:37.570Z,92236.00
2023-03-12T04:00:37.688Z,92242.00
2023-03-12T04:01:37.730Z,92240.00
2023-03-12T04:02:37.775Z,92238.00
2023-03-12T04:03:37.890Z,92244.00
2023-03-12T04:04:37.900Z,92242.00
2023-03-12T04:05:38.002Z,92240.00
2023-03-12T04:06:38.052Z,92238.00
2023-03-12T04:07:38.103Z,92236.00
2023-03-12T04:08:38.252Z,92236.00
2023-03-12T04:09:38.226Z,92242.00
2023-03-12T04:10:38.293Z,92240.00
2023-03-12T04:11:38.379Z,92242.00
2023-03-12T04:12:38.481Z,92242.00
2023-03-12T04:13:38.501Z,92242.00
2023-03-12T04:14:38.564Z,92242.00
2023-03-12T04:15:38.738Z,92242.00
2023-03-12T04:16:38.832Z,92240.00
2023-03-12T04:17:38.761Z,92242.00
2023-03-12T04:18:38.907Z,92244.00
2023-03-12T04:19:38.882Z,92246.00
2023-03-12T04:20:38.946Z,92246.00
2023-03-12T04:21:39.008Z,92248.00
2023-03-12T04:22:39.072Z,92250.00
2023-03-12T04:23:39.162Z,92248.00
2023-03-12T04:24:39.210Z,92250.00
2023-03-12T04:25:39.281Z,92248.00
2023-03-12T04:26:39.337Z,92248.00
2023-03-12T04:27:39.414Z,92250.00
2023-03-12T04:28:39.481Z,92252.00
2023-03-12T04:29:39.551Z,92250.00
2023-03-12T04:30:39.631Z,92254.00
2023-03-12T04:31:39.769Z,92254.00
2023-03-12T04:32:39.776Z,92252.00
2023-03-12T04:33:39.824Z,92252.00
2023-03-12T04:34:39.882Z,92252.00
2023-03-12T04:35:39.972Z,92252.00
2023-03-12T04:37:40.077Z,92250.00
2023-03-12T04:38:40.165Z,92248.00
2023-03-12T04:39:40.227Z,92248.00
2023-03-12T04:45:40.638Z,92252.00
2023-03-12T04:46:40.755Z,92252.00
2023-03-12T04:47:40.749Z,92250.00
2023-03-12T04:48:40.886Z,92252.00
2023-03-12T04:49:40.902Z,92254.00
2023-03-12T04:50:40.939Z,92256.00
2023-03-12T04:51:41.009Z,92260.00
2023-03-12T04:52:41.076Z,92260.00
2023-03-12T04:53:41.246Z,92256.00
2023-03-12T04:54:41.196Z,92254.00
2023-03-12T04:55:41.275Z,92252.00
2023-03-12T04:56:41.824Z,92258.00
2023-03-12T04:57:41.403Z,92256.00
2023-03-12T04:58:41.469Z,92258.00
2023-03-12T04:59:41.536Z,92262.00
2023-03-12T05:00:41.652Z,92264.00
2023-03-12T05:01:41.662Z,92270.00
2023-03-12T05:02:41.769Z,92268.00
2023-03-12T05:03:41.816Z,92266.00
2023-03-12T05:04:41.857Z,92270.00
2023-03-12T05:05:41.914Z,92270.00
2023-03-12T05:06:42.064Z,92270.00
2023-03-12T05:07:42.048Z,92272.00
2023-03-12T05:08:42.114Z,92274.00
2023-03-12T05:09:42.181Z,92278.00
2023-03-12T05:10:42.252Z,92281.00
2023-03-12T05:11:42.320Z,92280.00
2023-03-12T05:12:42.386Z,92272.00
2023-03-12T05:13:42.450Z,92270.00
2023-03-12T05:14:42.530Z,92276.00
2023-03-12T05:15:42.583Z,92280.00
2023-03-12T05:16:42.710Z,92280.00
2023-03-12T05:17:42.747Z,92283.00
2023-03-12T05:18:42.775Z,92281.00
2023-03-12T05:19:42.842Z,92283.00
2023-03-12T05:20:42.910Z,92280.00
2023-03-12T05:21:42.974Z,92285.00
2023-03-12T05:22:43.045Z,92283.00
2023-03-12T05:23:43.117Z,92287.00
2023-03-12T05:24:43.174Z,92287.00
2023-03-12T05:25:43.248Z,92291.00
2023-03-12T05:26:43.309Z,92295.00
2023-03-12T05:27:43.371Z,92293.00
2023-03-12T05:28:43.437Z,92289.00
2023-03-12T05:29:43.498Z,92287.00
2023-03-12T05:30:43.576Z,92291.00
2023-03-12T05:31:43.890Z,92295.00
2023-03-12T05:32:43.775Z,92291.00
2023-03-12T05:33:43.777Z,92295.00
2023-03-12T05:34:43.839Z,92297.00
2023-03-12T05:35:43.960Z,92299.00
2023-03-12T05:36:43.990Z,92303.00
2023-03-12T05:37:44.045Z,92305.00
2023-03-12T05:38:44.113Z,92309.00
2023-03-12T05:39:44.176Z,92307.00
2023-03-12T05:40:44.243Z,92303.00
2023-03-12T05:41:44.304Z,92301.00
2023-03-12T05:42:44.384Z,92303.00
2023-03-12T05:43:44.551Z,92305.00
2023-03-12T05:44:44.552Z,92307.00
2023-03-12T05:45:44.679Z,92305.00
2023-03-12T05:46:44.647Z,92303.00
2023-03-12T05:47:44.713Z,92303.00
2023-03-12T05:48:44.771Z,92303.00
2023-03-12T05:49:44.843Z,92301.00
2023-03-12T05:50:44.916Z,92299.00
2023-03-12T05:51:45.006Z,92301.00
2023-03-12T05:52:45.047Z,92305.00
2023-03-12T05:53:45.123Z,92311.00
2023-03-12T05:54:45.168Z,92313.00
2023-03-12T05:55:45.246Z,92315.00
2023-03-12T05:56:45.296Z,92311.00
2023-03-12T05:57:45.425Z,92303.00
2023-03-12T05:58:45.424Z,92297.00
2023-03-12T05:59:45.489Z,92299.00
2023-03-12T06:00:45.558Z,92305.00
2023-03-12T06:01:45.638Z,92313.00
2023-03-12T06:02:45.697Z,92315.00
2023-03-12T06:03:45.870Z,92317.00
2023-03-12T06:04:45.854Z,92315.00
2023-03-12T06:05:45.907Z,92317.00
2023-03-12T06:06:45.957Z,92317.00
2023-03-12T06:07:46.343Z,92319.00
2023-03-12T06:08:46.144Z,92317.00
2023-03-12T06:09:46.155Z,92315.00
2023-03-12T06:10:46.213Z,92315.00
2023-03-12T06:11:46.285Z,92315.00
2023-03-12T06:12:46.354Z,92315.00
2023-03-12T06:13:46.424Z,92311.00
2023-03-12T06:14:46.489Z,92313.00
2023-03-12T06:15:46.603Z,92315.00
2023-03-12T06:16:46.773Z,92315.00
2023-03-12T06:17:46.703Z,92315.00
2023-03-12T06:18:46.747Z,92315.00
2023-03-12T06:19:46.816Z,92317.00
2023-03-12T06:20:46.945Z,92313.00
2023-03-12T06:21:46.958Z,92309.00
2023-03-12T06:23:47.100Z,92311.00
2023-03-12T06:24:47.176Z,92317.00
2023-03-12T06:25:47.217Z,92317.00
2023-03-12T06:26:47.290Z,92317.00
2023-03-12T06:27:47.355Z,92313.00
2023-03-12T06:28:47.426Z,92317.00
2023-03-12T06:29:47.502Z,92319.00
2023-03-12T06:30:47.624Z,92317.00
2023-03-12T06:31:47.801Z,92321.00
2023-03-12T06:32:47.766Z,92325.00
2023-03-12T06:33:47.751Z,92321.00
2023-03-12T06:34:47.817Z,92325.00
2023-03-12T06:35:47.900Z,92325.00
2023-03-12T06:36:47.965Z,92338.00
2023-03-12T06:37:48.082Z,92338.00
2023-03-12T06:38:48.071Z,92338.00
2023-03-12T06:39:48.145Z,92336.00
2023-03-12T06:40:48.197Z,92338.00
2023-03-12T06:41:48.271Z,92334.00
2023-03-12T06:42:48.330Z,92334.00
2023-03-12T06:43:48.406Z,92338.00
2023-03-12T06:44:48.475Z,92338.00
2023-03-12T06:45:48.589Z,92340.00
2023-03-12T06:46:48.723Z,92340.00
2023-03-12T06:47:48.732Z,92338.00
2023-03-12T06:48:48.840Z,92340.00
2023-03-12T06:49:48.911Z,92338.00
2023-03-12T06:50:48.985Z,92342.00
2023-03-12T06:51:49.072Z,92344.00
2023-03-12T07:09:50.619Z,92352.00
2023-03-12T07:10:50.699Z,92356.00
2023-03-12T07:11:50.804Z,92358.00
2023-03-12T07:12:50.878Z,92358.00
2023-03-12T07:13:50.959Z,92356.00
2023-03-12T07:14:51.043Z,92354.00
2023-03-12T07:15:51.159Z,92352.00
2023-03-12T07:16:51.213Z,92350.00
2023-03-12T07:17:51.338Z,92344.00
2023-03-12T07:18:51.448Z,92340.00
2023-03-12T07:19:51.445Z,92340.00
2023-03-12T07:20:51.535Z,92344.00
2023-03-12T09:21:00.633Z,92414.00
2023-03-12T09:22:00.715Z,92409.00
2023-03-12T09:23:00.779Z,92418.00
2023-03-12T09:24:00.854Z,92424.00
2023-03-12T09:25:01.009Z,92420.00
2023-03-12T09:26:01.010Z,92420.00
2023-03-12T09:27:01.079Z,92424.00
2023-03-12T09:28:01.165Z,92430.00
2023-03-12T09:29:01.228Z,92428.00
2023-03-12T09:30:01.557Z,92424.00
2023-03-12T09:31:01.439Z,92420.00
2023-03-12T09:32:01.450Z,92416.00
2023-03-12T09:33:01.536Z,92414.00
2023-03-12T09:34:01.604Z,92412.00
2023-03-12T09:35:02.417Z,92416.00
2023-03-12T09:36:01.809Z,92422.00
2023-03-12T09:37:01.873Z,92422.00
2023-03-12T09:38:01.906Z,92418.00
2023-03-12T09:39:01.991Z,92420.00
2023-03-12T09:40:02.066Z,92418.00
2023-03-12T09:41:02.142Z,92409.00
2023-03-12T09:42:02.210Z,92411.00
2023-03-12T09:43:02.288Z,92416.00
2023-03-12T09:44:02.355Z,92426.00
2023-03-12T09:45:02.437Z,92430.00
2023-03-12T09:46:02.557Z,92428.00
2023-03-12T09:47:02.580Z,92418.00
2023-03-12T09:48:02.646Z,92411.00
2023-03-12T09:49:02.718Z,92403.00
2023-03-12T09:50:02.789Z,92405.00
2023-03-12T09:51:02.871Z,92412.00
2023-03-12T09:52:02.924Z,92416.00
2023-03-12T09:53:02.991Z,92416.00
2023-03-12T09:54:03.077Z,92418.00
2023-03-12T09:55:03.127Z,92422.00
2023-03-12T09:56:03.208Z,92422.00
2023-03-12T09:57:03.267Z,92420.00
2023-03-12T09:58:03.341Z,92422.00
2023-03-12T09:59:03.420Z,92422.00
2023-03-12T10:00:03.502Z,92424.00
2023-03-12T10:01:03.560Z,92428.00
2023-03-12T10:02:03.657Z,92436.00
2023-03-12T10:03:03.774Z,92440.00
2023-03-12T10:04:03.759Z,92440.00
2023-03-12T10:05:03.892Z,92440.00
2023-03-12T10:06:03.996Z,92444.00
2023-03-12T10:07:03.973Z,92442.00
2023-03-12T10:08:17.482Z,92438.00
2023-03-12T10:09:05.059Z,92436.00
2023-03-12T10:10:04.114Z,92436.00
2023-03-12T10:11:04.092Z,92434.00
2023-03-12T10:12:04.108Z,92436.00
2023-03-12T10:13:04.114Z,92432.00
2023-03-12T10:14:04.126Z,92432.00
2023-03-12T10:15:04.148Z,92430.00
2023-03-12T10:16:04.199Z,92432.00
2023-03-12T10:17:04.189Z,92430.00
2023-03-12T10:18:04.336Z,92432.00
2023-03-12T10:19:04.244Z,92434.00
2023-03-12T10:20:04.273Z,92436.00
2023-03-12T10:21:04.369Z,92440.00
2023-03-12T10:22:04.431Z,92442.00
2023-03-12T10:23:04.508Z,92440.00
2023-03-12T10:24:04.570Z,92438.00
2023-03-12T10:25:04.654Z,92430.00
2023-03-12T10:26:04.717Z,92436.00
2023-03-12T10:27:04.790Z,92444.00
2023-03-12T10:28:04.864Z,92450.00
2023-03-12T10:29:05.442Z,92450.00
2023-03-12T10:30:04.994Z,92446.00
2023-03-12T10:31:05.172Z,92440.00
2023-03-12T10:32:05.121Z,92436.00
2023-03-12T10:33:05.180Z,92434.00
2023-03-12T10:34:05.248Z,92432.00
2023-03-12T10:35:05.309Z,92430.00
2023-03-12T10:36:05.443Z,92436.00
2023-03-12T10:37:05.467Z,92442.00
2023-03-12T10:38:05.522Z,92446.00
2023-03-12T10:39:05.602Z,92450.00
2023-03-12T10:40:05.675Z,92452.00
2023-03-12T10:41:05.737Z,92458.00
2023-03-12T10:42:05.791Z,92458.00
2023-03-12T11:50:10.956Z,92469.00
2023-03-12T11:57:10.636Z,92465.00
2023-03-12T11:58:10.688Z,92467.00
2023-03-12T11:59:10.752Z,92467.00
2023-03-12T12:00:10.821Z,92465.00
2023-03-12T12:01:10.893Z,92463.00
2023-03-12T12:02:10.990Z,92459.00
2023-03-12T12:03:11.051Z,92450.00
2023-03-12T12:04:11.104Z,92450.00
2023-03-12T12:05:11.162Z,92452.00
2023-03-12T12:06:11.234Z,92444.00
2023-03-12T12:07:11.310Z,92440.00
2023-03-12T12:08:11.378Z,92438.00
2023-03-12T12:09:11.435Z,92440.00
2023-03-12T12:10:11.491Z,92436.00
2023-03-12T12:11:11.561Z,92430.00
2023-03-12T12:12:11.639Z,92430.00
2023-03-12T12:13:11.715Z,92434.00
2023-03-12T12:14:11.778Z,92438.00
2023-03-12T12:15:11.842Z,92440.00
2023-03-12T12:16:11.956Z,92440.00
2023-03-12T12:17:11.972Z,92446.00
2023-03-12T12:18:12.034Z,92446.00
2023-03-12T12:19:12.111Z,92450.00
2023-03-12T12:20:12.156Z,92450.00
2023-03-12T12:21:12.233Z,92444.00
2023-03-12T12:22:12.301Z,92436.00
2023-03-12T12:23:12.354Z,92430.00
2023-03-12T12:24:12.435Z,92432.00
2023-03-12T12:25:12.483Z,92438.00
2023-03-12T12:26:12.550Z,92442.00
2023-03-12T12:27:12.613Z,92444.00
2023-03-12T12:28:12.689Z,92442.00
2023-03-12T12:29:12.744Z,92434.00
2023-03-12T12:30:12.803Z,92432.00
2023-03-12T12:31:12.873Z,92430.00
2023-03-12T12:32:12.999Z,92430.00
2023-03-12T12:33:13.062Z,92430.00
2023-03-12T12:34:13.059Z,92424.00
2023-03-12T14:30:20.624Z,92463.00
2023-03-12T14:32:20.702Z,92465.00
2023-03-12T14:33:20.741Z,92467.00
2023-03-12T14:34:20.808Z,92469.00
2023-03-12T14:35:21.576Z,92469.00
2023-03-12T14:36:20.932Z,92465.00
2023-03-12T14:37:21.002Z,92469.00
2023-03-12T14:38:21.066Z,92465.00
2023-03-12T14:39:21.123Z,92465.00
2023-03-12T14:40:21.201Z,92465.00
2023-03-12T14:41:21.272Z,92465.00
2023-03-12T14:42:21.341Z,92465.00
2023-03-12T14:43:21.403Z,92465.00
2023-03-12T14:44:21.530Z,92459.00
2023-03-12T14:45:21.531Z,92461.00
2023-03-12T14:46:21.708Z,92461.00
2023-03-12T14:47:22.030Z,92456.00
2023-03-12T14:48:21.719Z,92454.00
2023-03-12T14:49:21.820Z,92459.00
2023-03-12T14:50:21.864Z,92463.00
2023-03-12T14:51:24.077Z,92467.00
2023-03-12T14:52:22.011Z,92465.00
2023-03-12T14:53:22.071Z,92461.00
2023-03-12T14:54:22.186Z,92459.00
2023-03-12T14:55:22.206Z,92461.00
2023-03-12T14:56:22.274Z,92465.00
2023-03-12T14:57:22.342Z,92459.00
2023-03-12T14:58:22.412Z,92458.00
2023-03-12T14:59:22.482Z,92456.00
2023-03-12T15:00:22.569Z,92456.00
2023-03-12T15:01:22.651Z,92456.00
2023-03-12T15:02:22.694Z,92456.00
2023-03-12T15:03:22.769Z,92454.00
2023-03-12T15:04:22.898Z,92454.00
2023-03-12T15:05:23.049Z,92452.00
2023-03-12T15:06:22.988Z,92446.00
2023-03-12T15:07:23.066Z,92440.00
2023-03-12T15:08:23.139Z,92438.00
2023-03-12T15:09:23.202Z,92438.00
2023-03-12T15:10:23.284Z,92436.00
2023-03-12T15:11:23.354Z,92436.00
2023-03-12T15:12:23.431Z,92434.00
2023-03-12T15:13:23.483Z,92434.00
2023-03-12T15:14:23.558Z,92436.00
2023-03-12T15:15:23.632Z,92438.00
2023-03-12T15:16:23.733Z,92436.00
2023-03-12T15:17:23.773Z,92434.00
2023-03-12T15:18:23.854Z,92428.00
2023-03-12T15:19:23.920Z,92426.00
2023-03-12T15:20:23.996Z,92424.00
2023-03-12T15:21:24.079Z,92424.00
2023-03-12T15:22:24.140Z,92426.00
2023-03-12T15:23:24.544Z,92428.00
2023-03-12T15:24:24.284Z,92434.00
2023-03-12T15:25:24.380Z,92432.00
2023-03-12T15:26:24.421Z,92432.00
2023-03-12T15:27:24.497Z,92432.00
2023-03-12T15:28:24.576Z,92432.00
2023-03-12T15:29:24.658Z,92432.00
2023-03-12T15:30:24.808Z,92436.00
2023-03-12T15:31:24.878Z,92440.00
2023-03-12T15:32:25.053Z,92440.00
2023-03-12T15:33:24.958Z,92440.00
2023-03-12T15:34:25.014Z,92440.00
2023-03-12T15:35:25.230Z,92438.00
2023-03-12T15:36:25.199Z,92436.00
2023-03-12T15:37:25.235Z,92438.00
2023-03-12T15:38:25.307Z,92440.00
2023-03-12T15:39:25.416Z,92444.00
2023-03-12T15:40:25.453Z,92444.00
2023-03-12T15:41:25.529Z,92446.00
2023-03-12T15:42:25.709Z,92444.00
2023-03-12T15:43:25.664Z,92444.00
2023-03-12T15:44:25.757Z,92440.00
2023-03-12T15:45:25.942Z,92440.00
2023-03-12T15:46:26.060Z,92440.00
2023-03-12T15:47:25.963Z,92444.00
2023-03-12T15:48:26.038Z,92438.00
2023-03-12T15:49:26.112Z,92436.00
2023-03-12T15:50:26.199Z,92432.00
2023-03-12T15:51:26.268Z,92430.00
2023-03-12T15:52:26.338Z,92430.00
2023-03-12T15:53:26.417Z,92428.00
2023-03-12T15:54:26.474Z,92430.00
2023-03-12T15:55:27.208Z,92426.00
2023-03-12T15:56:26.628Z,92426.00
2023-03-12T15:57:26.704Z,92426.00
2023-03-12T15:58:26.765Z,92422.00
2023-03-12T15:59:26.890Z,92420.00
2023-03-12T16:00:26.915Z,92418.00
2023-03-12T16:01:27.035Z,92422.00
2023-03-12T16:58:30.670Z,92477.00
2023-03-12T16:59:30.725Z,92475.00
2023-03-12T17:00:30.822Z,92481.00
2023-03-12T17:01:30.900Z,92481.00
2023-03-12T17:02:30.984Z,92483.00
2023-03-12T17:03:32.071Z,92487.00
2023-03-12T17:04:31.148Z,92487.00
2023-03-12T17:05:31.186Z,92491.00
2023-03-12T17:06:31.310Z,92491.00
2023-03-12T17:07:31.348Z,92495.00
2023-03-12T17:08:31.434Z,92497.00
2023-03-12T17:09:31.506Z,92506.00
2023-03-12T17:10:31.590Z,92508.00
2023-03-12T17:11:32.079Z,92512.00
2023-03-12T17:12:31.757Z,92518.00
2023-03-12T17:13:31.816Z,92514.00
2023-03-12T17:14:31.890Z,92516.00
2023-03-12T19:12:51.690Z,92655.00
2023-03-12T19:14:40.645Z,92653.00
2023-03-12T19:15:40.655Z,92649.00
2023-03-12T19:16:40.694Z,92653.00
2023-03-12T19:17:40.658Z,92651.00
2023-03-12T19:18:40.699Z,92655.00
2023-03-12T19:19:40.693Z,92653.00
2023-03-12T19:20:40.716Z,92655.00
2023-03-12T19:21:40.676Z,92651.00
2023-03-12T19:22:40.685Z,92653.00
2023-03-12T19:23:40.695Z,92651.00
2023-03-12T19:24:40.788Z,92653.00
2023-03-12T19:25:40.787Z,92651.00
2023-03-12T19:26:40.865Z,92651.00
2023-03-12T19:27:40.987Z,92649.00
2023-03-12T19:28:40.962Z,92655.00
2023-03-12T19:29:41.022Z,92655.00
2023-03-12T19:30:41.097Z,92649.00
2023-03-12T19:31:41.227Z,92651.00
2023-03-12T19:32:44.273Z,92649.00
2023-03-12T19:33:41.217Z,92651.00
2023-03-12T19:34:41.211Z,92653.00
2023-03-12T19:35:41.293Z,92655.00
2023-03-12T19:36:41.229Z,92655.00
2023-03-12T19:37:41.258Z,92657.00
2023-03-12T19:38:41.257Z,92661.00
2023-03-12T19:39:41.266Z,92661.00
2023-03-12T19:40:41.276Z,92659.00
2023-03-12T19:41:41.278Z,92659.00
2023-03-12T19:42:41.298Z,92663.00
2023-03-12T19:43:42.138Z,92661.00
2023-03-12T19:44:41.316Z,92665.00
2023-03-12T19:45:41.408Z,92667.00
2023-03-12T19:46:41.349Z,92667.00
2023-03-12T19:47:41.345Z,92669.00
2023-03-12T19:48:41.354Z,92671.00
2023-03-12T19:49:41.425Z,92671.00
2023-03-12T19:50:41.383Z,92673.00
2023-03-12T19:51:41.409Z,92673.00
2023-03-12T19:52:41.408Z,92673.00
2023-03-12T19:53:41.412Z,92671.00
2023-03-12T19:54:42.095Z,92671.00
2023-03-12T19:55:41.445Z,92669.00
2023-03-12T19:56:41.440Z,92671.00
2023-03-12T19:57:41.466Z,92669.00
2023-03-12T19:58:41.541Z,92675.00
2023-03-12T19:59:41.492Z,92673.00
2023-03-12T20:00:41.524Z,92673.00
2023-03-12T20:01:41.533Z,92675.00
2023-03-12T20:02:41.661Z,92675.00
2023-03-12T20:03:43.138Z,92677.00
2023-03-12T20:04:41.556Z,92677.00
2023-03-12T20:05:41.560Z,92679.00
2023-03-12T20:06:41.568Z,92675.00
2023-03-12T20:07:41.658Z,92681.00
2023-03-12T20:08:41.606Z,92679.00
2023-03-12T20:09:41.619Z,92679.00
2023-03-12T20:10:41.659Z,92677.00
2023-03-12T20:11:41.729Z,92677.00
2023-03-12T20:12:41.790Z,92681.00
2023-03-12T20:13:41.850Z,92681.00
2023-03-12T20:14:42.935Z,92683.00
2023-03-12T20:15:41.970Z,92683.00
2023-03-12T20:16:42.075Z,92685.00
2023-03-12T20:17:42.106Z,92685.00
2023-03-12T20:18:42.163Z,92687.00
2023-03-12T20:19:42.223Z,92689.00
2023-03-12T20:20:42.279Z,92689.00
2023-03-12T20:21:42.348Z,92691.00
2023-03-12T20:22:42.409Z,92693.00
2023-03-12T20:23:42.458Z,92695.00
2023-03-12T20:24:42.526Z,92695.00
2023-03-12T20:25:42.598Z,92700.00
2023-03-12T20:26:42.644Z,92700.00
2023-03-12T20:27:43.156Z,92699.00
2023-03-12T20:28:42.784Z,92700.00
2023-03-12T20:29:42.853Z,92700.00
2023-03-12T20:30:42.969Z,92700.00
2023-03-12T20:31:43.092Z,92702.00
2023-03-12T20:32:43.131Z,92700.00
2023-03-12T20:33:43.178Z,92700.00
2023-03-12T20:34:43.256Z,92702.00
2023-03-12T20:35:43.377Z,92702.00
2023-03-12T20:36:43.419Z,92704.00
2023-03-12T20:37:43.521Z,92708.00
2023-03-12T20:38:43.582Z,92712.00
2023-03-12T20:39:43.669Z,92714.00